createdAt,value
2022-12-01T00:03:30.133Z,100725.97
2022-12-01T00:08:34.570Z,100733.72
2022-12-01T00:13:37.969Z,100746.09
2022-12-01T00:18:40.960Z,100749.00
2022-12-01T00:23:47.309Z,100746.31
2022-12-01T00:28:56.876Z,100749.28
2022-12-01T00:33:59.724Z,100760.00
2022-12-01T00:39:02.755Z,100762.19
2022-12-01T00:44:05.834Z,100770.41
2022-12-01T00:49:12.796Z,100770.72
2022-12-01T00:54:15.679Z,100770.88
2022-12-01T00:59:18.669Z,100760.75
2022-12-01T01:04:21.725Z,100765.16
2022-12-01T01:09:25.996Z,100769.41
2022-12-01T01:14:28.945Z,100775.41
2022-12-01T01:19:31.850Z,100777.91
2022-12-01T01:24:34.973Z,100766.56
2022-12-01T01:29:37.924Z,100766.28
2022-12-01T01:34:40.824Z,100760.72
2022-12-01T01:39:43.650Z,100764.59
2022-12-01T01:44:58.592Z,100764.06
2022-12-01T01:50:09.175Z,100779.03
2022-12-01T01:55:13.747Z,100771.38
2022-12-01T02:00:20.514Z,100774.13
2022-12-01T02:05:31.269Z,100777.00
2022-12-01T02:11:14.349Z,100779.94
2022-12-01T02:16:55.536Z,100786.47
2022-12-01T02:22:41.960Z,100773.06
2022-12-01T02:28:14.568Z,100777.75
2022-12-01T02:33:31.569Z,100782.41
2022-12-01T02:38:40.074Z,100781.97
2022-12-01T02:44:30.443Z,100770.94
2022-12-01T02:49:40.331Z,100771.31
2022-12-01T02:54:48.480Z,100763.81
2022-12-01T02:59:55.307Z,100763.28
2022-12-01T03:05:09.716Z,100762.75
2022-12-01T03:10:43.757Z,100751.78
2022-12-01T03:16:20.304Z,100750.31
2022-12-01T03:21:36.403Z,100739.28
2022-12-01T03:26:44.231Z,100744.41
2022-12-01T03:32:01.797Z,100745.47
2022-12-01T03:37:21.832Z,100762.09
2022-12-01T03:42:36.904Z,100752.81
2022-12-01T03:47:40.557Z,100750.28
2022-12-01T03:53:06.663Z,100748.75
2022-12-01T03:58:23.576Z,100746.34
2022-12-01T04:03:27.042Z,100739.63
2022-12-01T04:08:30.779Z,100747.44
2022-12-01T04:13:34.128Z,100744.00
2022-12-01T04:18:37.023Z,100742.25
2022-12-01T04:23:58.088Z,100739.63
2022-12-01T04:29:04.173Z,100745.69
2022-12-01T04:34:09.419Z,100746.53
2022-12-01T04:39:12.303Z,100741.41
2022-12-01T04:44:15.472Z,100737.06
2022-12-01T04:49:19.357Z,100744.22
2022-12-01T04:54:22.422Z,100748.78
2022-12-01T04:59:25.267Z,100761.94
2022-12-01T05:04:28.047Z,100771.75
2022-12-01T05:09:30.946Z,100783.28
2022-12-01T05:14:33.813Z,100785.09
2022-12-01T05:19:54.972Z,100790.38
2022-12-01T05:24:57.724Z,100781.19
2022-12-01T05:30:00.590Z,100784.06
2022-12-01T05:35:03.570Z,100784.34
2022-12-01T05:40:07.583Z,100793.34
2022-12-01T05:45:10.922Z,100792.63
2022-12-01T05:50:14.005Z,100786.78
2022-12-01T05:55:17.258Z,100798.81
2022-12-01T06:00:20.882Z,100791.78
2022-12-01T06:05:24.089Z,100791.00
2022-12-01T06:10:27.084Z,100789.31
2022-12-01T06:15:30.605Z,100793.75
2022-12-01T06:20:33.392Z,100804.78
2022-12-01T06:25:36.327Z,100803.66
2022-12-01T06:30:39.220Z,100798.03
2022-12-01T06:35:42.192Z,100794.09
2022-12-01T06:40:45.154Z,100795.78
2022-12-01T06:45:47.974Z,100788.72
2022-12-01T06:50:50.912Z,100782.94
2022-12-01T06:55:54.360Z,100794.66
2022-12-01T07:00:58.917Z,100789.78
2022-12-01T07:06:03.472Z,100800.31
2022-12-01T07:11:12.539Z,100798.31
2022-12-01T07:16:16.196Z,100801.28
2022-12-01T07:21:19.220Z,100790.03
2022-12-01T07:26:22.723Z,100799.00
2022-12-01T07:31:25.642Z,100792.16
2022-12-01T07:36:28.526Z,100798.44
2022-12-01T07:41:31.486Z,100795.25
2022-12-01T07:46:34.205Z,100789.34
2022-12-01T07:51:37.114Z,100783.97
2022-12-01T07:56:40.965Z,100786.50
2022-12-01T08:01:45.080Z,100789.25
2022-12-01T08:06:48.076Z,100780.31
2022-12-01T08:11:50.971Z,100786.41
2022-12-01T08:16:54.293Z,100783.78
2022-12-01T08:21:57.531Z,100784.97
2022-12-01T08:27:00.473Z,100781.47
2022-12-01T08:32:03.202Z,100783.97
2022-12-01T08:37:06.149Z,100784.28
2022-12-01T08:42:09.047Z,100782.84
2022-12-01T08:47:15.730Z,100791.13
2022-12-01T08:52:22.282Z,100785.41
2022-12-01T08:57:25.111Z,100791.63
2022-12-01T09:02:28.279Z,100787.69
2022-12-01T09:07:31.448Z,100783.44
2022-12-01T09:12:34.604Z,100770.53
2022-12-01T09:17:37.383Z,100762.31
2022-12-01T09:22:40.272Z,100757.16
2022-12-01T09:27:43.446Z,100762.75
2022-12-01T09:32:46.338Z,100745.00
2022-12-01T09:37:49.319Z,100749.56
2022-12-01T09:42:52.240Z,100757.16
2022-12-01T09:47:59.767Z,100755.72
2022-12-01T09:53:09.218Z,100752.13
2022-12-01T09:58:23.083Z,100754.78
2022-12-01T10:03:48.324Z,100741.22
2022-12-01T10:09:16.617Z,100735.75
2022-12-01T10:14:22.122Z,100741.75
2022-12-01T10:19:52.520Z,100736.97
2022-12-01T10:25:22.942Z,100732.06
2022-12-01T10:30:26.359Z,100731.00
2022-12-01T10:35:37.868Z,100719.13
2022-12-01T10:40:42.534Z,100710.03
2022-12-01T10:45:45.700Z,100720.38
2022-12-01T10:50:57.524Z,100715.28
2022-12-01T10:56:18.764Z,100708.94
2022-12-01T11:01:34.707Z,100698.88
2022-12-01T11:06:38.088Z,100693.59
2022-12-01T11:11:41.321Z,100699.81
2022-12-01T11:16:47.855Z,100703.00
2022-12-01T11:22:19.973Z,100699.50
2022-12-01T11:27:35.078Z,100692.88
2022-12-01T11:32:40.112Z,100680.16
2022-12-01T11:38:27.824Z,100674.09
2022-12-01T11:43:35.909Z,100672.28
2022-12-01T11:48:39.136Z,100671.16
2022-12-01T11:53:44.308Z,100664.28
2022-12-01T11:58:50.470Z,100671.00
2022-12-01T12:04:27.371Z,100664.50
2022-12-01T12:09:45.591Z,100668.44
2022-12-01T12:15:54.105Z,100667.84
2022-12-01T12:21:34.214Z,100663.13
2022-12-01T12:26:59.112Z,100671.44
2022-12-01T12:32:23.641Z,100668.81
2022-12-01T12:38:09.158Z,100670.00
2022-12-01T12:43:41.990Z,100668.91
2022-12-01T12:49:19.689Z,100660.16
2022-12-01T12:55:16.736Z,100655.88
2022-12-01T13:00:26.029Z,100665.56
2022-12-01T13:05:50.158Z,100660.31
2022-12-01T13:10:58.171Z,100664.75
2022-12-01T13:16:04.854Z,100658.78
2022-12-01T13:21:16.027Z,100655.81
2022-12-01T13:26:22.373Z,100644.06
2022-12-01T13:31:25.679Z,100641.09
2022-12-01T13:36:46.985Z,100644.34
2022-12-01T13:42:20.860Z,100645.22
2022-12-01T13:47:46.987Z,100650.28
2022-12-01T13:52:50.923Z,100647.53
2022-12-01T13:57:56.745Z,100650.09
2022-12-01T14:03:19.533Z,100647.69
2022-12-01T14:08:28.466Z,100642.19
2022-12-01T14:13:48.589Z,100645.44
2022-12-01T14:18:58.950Z,100648.88
2022-12-01T14:24:06.602Z,100635.91
2022-12-01T14:29:27.196Z,100638.59
2022-12-01T14:34:34.953Z,100635.78
2022-12-01T14:39:42.976Z,100635.44
2022-12-01T14:44:49.725Z,100637.59
2022-12-01T14:50:02.198Z,100643.13
2022-12-01T14:55:21.996Z,100637.50
2022-12-01T15:00:25.474Z,100637.63
2022-12-01T15:05:31.444Z,100639.44
2022-12-01T15:10:35.491Z,100647.22
2022-12-01T15:15:49.460Z,100647.84
2022-12-01T15:21:25.894Z,100646.91
2022-12-01T15:26:39.318Z,100652.88
2022-12-01T15:31:47.189Z,100651.41
2022-12-01T15:36:52.505Z,100650.69
2022-12-01T15:41:55.785Z,100658.97
2022-12-01T15:46:58.767Z,100663.97
2022-12-01T15:52:12.617Z,100656.91
2022-12-01T15:57:21.890Z,100650.59
2022-12-01T16:02:33.560Z,100668.31
2022-12-01T16:08:11.996Z,100662.44
2022-12-01T16:13:48.153Z,100667.03
2022-12-01T16:19:02.373Z,100670.56
2022-12-01T16:24:06.711Z,100663.13
2022-12-01T16:29:20.879Z,100659.03
2022-12-01T16:34:45.333Z,100667.91
2022-12-01T16:39:48.529Z,100663.63
2022-12-01T16:44:52.884Z,100665.41
2022-12-01T16:49:56.032Z,100670.94
2022-12-01T16:54:58.970Z,100668.72
2022-12-01T17:00:02.233Z,100676.34
2022-12-01T17:05:10.382Z,100671.75
2022-12-01T17:10:13.597Z,100675.78
2022-12-01T17:15:17.012Z,100687.69
2022-12-01T17:20:20.142Z,100685.94
2022-12-01T17:25:23.064Z,100697.06
2022-12-01T17:30:25.980Z,100696.84
2022-12-01T17:35:29.268Z,100692.28
2022-12-01T17:40:32.340Z,100687.88
2022-12-01T17:45:35.234Z,100685.88
2022-12-01T17:50:38.362Z,100684.75
2022-12-01T17:55:41.071Z,100688.84
2022-12-01T18:00:43.937Z,100686.75
2022-12-01T18:05:57.198Z,100691.69
2022-12-01T18:11:07.904Z,100687.06
2022-12-01T18:16:18.483Z,100699.81
2022-12-01T18:21:23.897Z,100693.34
2022-12-01T18:26:29.661Z,100698.91
2022-12-01T18:31:33.977Z,100690.50
2022-12-01T18:36:39.989Z,100689.91
2022-12-01T18:41:43.164Z,100693.59
2022-12-01T18:46:46.764Z,100696.50
2022-12-01T18:51:49.816Z,100699.94
2022-12-01T18:56:53.332Z,100699.00
2022-12-01T19:01:56.296Z,100696.22
2022-12-01T19:06:59.183Z,100697.94
2022-12-01T19:12:02.046Z,100703.16
2022-12-01T19:17:04.947Z,100708.38
2022-12-01T19:22:07.984Z,100717.94
2022-12-01T19:27:10.870Z,100712.72
2022-12-01T19:32:16.163Z,100717.09
2022-12-01T19:37:20.049Z,100718.03
2022-12-01T19:42:23.014Z,100729.41
2022-12-01T19:47:25.844Z,100725.28
2022-12-01T19:52:31.104Z,100720.31
2022-12-01T19:57:34.089Z,100723.00
2022-12-01T20:02:36.972Z,100724.13
2022-12-01T20:07:40.359Z,100725.19
2022-12-01T20:12:43.506Z,100726.28
2022-12-01T20:17:46.541Z,100727.38
2022-12-01T20:22:49.494Z,100732.00
2022-12-01T20:27:52.828Z,100736.63
2022-12-01T20:32:55.868Z,100724.84
2022-12-01T20:37:58.871Z,100734.66
2022-12-01T20:43:01.786Z,100735.22
2022-12-01T20:48:05.040Z,100733.88
2022-12-01T20:53:08.239Z,100732.56
2022-12-01T20:58:11.768Z,100743.31
2022-12-01T21:03:15.311Z,100747.00
2022-12-01T21:08:18.572Z,100744.72
2022-12-01T21:13:39.182Z,100748.41
2022-12-01T21:19:00.365Z,100753.00
2022-12-01T21:24:16.727Z,100751.53
2022-12-01T21:29:27.828Z,100759.66
2022-12-01T21:34:34.917Z,100765.09
2022-12-01T21:39:39.263Z,100768.94
2022-12-01T21:44:42.751Z,100775.38
2022-12-01T21:49:47.710Z,100773.97
2022-12-01T21:54:51.423Z,100776.13
2022-12-01T22:00:08.681Z,100782.53
2022-12-01T22:05:39.202Z,100775.09
2022-12-01T22:11:06.454Z,100783.25
2022-12-01T22:16:14.348Z,100767.94
2022-12-01T22:21:23.647Z,100767.22
2022-12-01T22:26:26.848Z,100773.50
2022-12-01T22:31:31.451Z,100770.13
2022-12-01T22:36:35.044Z,100771.13
2022-12-01T22:41:38.144Z,100768.63
2022-12-01T22:46:41.418Z,100758.38
2022-12-01T22:51:58.245Z,100753.31
2022-12-01T22:57:37.197Z,100760.19
2022-12-01T23:02:40.107Z,100743.81
2022-12-01T23:07:43.670Z,100743.81
2022-12-01T23:12:50.269Z,100742.13
2022-12-01T23:17:53.508Z,100742.78
2022-12-01T23:22:59.459Z,100741.69
2022-12-01T23:28:08.006Z,100750.75
2022-12-01T23:33:13.715Z,100750.88
2022-12-01T23:38:22.216Z,100758.09
2022-12-01T23:43:29.821Z,100763.66
2022-12-01T23:49:12.693Z,100764.03
2022-12-01T23:54:28.232Z,100769.56
2022-12-01T23:59:32.106Z,100776.84
